Time;durP1;ratioP1;P1;durP2;ratioP2;P2;SDS_P1;SDS_P2;PMS_P1;PMS_P2;Temp;Humidity;BMP_temperature;BMP_pressure;BME280_temperature;BME280_humidity;BME280_pressure;Samples;Min_cycle;Max_cycle;Signal;HPM_P1;HPM_P2
2020/12/08 00:01:18;;;;;;;21.27;12.07;;;;;;;;;;4955942;29;20431;-80
2020/12/08 00:04:09;;;;;;;20.60;11.60;;;;;;;;;;4954819;29;20055;-80
2020/12/08 00:07:02;;;;;;;21.70;11.80;;;;;;;;;;4958492;29;20054;-80
2020/12/08 00:10:28;;;;;;;19.55;11.77;;;;;;;;;;4958196;28;20051;-80
2020/12/08 00:13:22;;;;;;;20.20;11.20;;;;;;;;;;4945515;29;20079;-80
2020/12/08 00:16:15;;;;;;;19.20;10.77;;;;;;;;;;4928557;29;20046;-79
2020/12/08 00:19:02;;;;;;;23.50;11.43;;;;;;;;;;4939905;29;20487;-81
2020/12/08 00:22:01;;;;;;;20.83;11.32;;;;;;;;;;4957286;28;20058;-80
2020/12/08 00:24:49;;;;;;;21.13;11.15;;;;;;;;;;4942730;29;20058;-80
2020/12/08 00:27:30;;;;;;;22.13;11.68;;;;;;;;;;4956016;28;20067;-81
2020/12/08 00:30:33;;;;;;;19.70;10.75;;;;;;;;;;4955262;28;20487;-79
2020/12/08 00:33:27;;;;;;;19.83;11.27;;;;;;;;;;4954240;29;20138;-81
2020/12/08 00:36:07;;;;;;;21.35;10.93;;;;;;;;;;4957312;28;20047;-78
2020/12/08 00:39:01;;;;;;;20.80;12.32;;;;;;;;;;4956924;28;20047;-78
2020/12/08 00:42:08;;;;;;;21.10;12.02;;;;;;;;;;4956719;29;20051;-79
2020/12/08 00:45:23;;;;;;;20.35;12.07;;;;;;;;;;4960686;28;20055;-79
2020/12/08 00:48:31;;;;;;;23.65;12.48;;;;;;;;;;4958746;29;20059;-79
2020/12/08 00:51:25;;;;;;;20.33;11.82;;;;;;;;;;4959268;29;20067;-80
2020/12/08 00:54:14;;;;;;;24.58;12.18;;;;;;;;;;4967913;29;20055;-80
2020/12/08 00:57:02;;;;;;;15.40;8.50;;;;;;;;;;4972693;28;20061;-80
2020/12/08 00:59:51;;;;;;;20.70;11.60;;;;;;;;;;5040379;23;20066;-81
2020/12/08 01:02:29;;;;;;;24.13;12.93;;;;;;;;;;4963876;28;20126;-80
2020/12/08 01:05:18;;;;;;;24.38;12.77;;;;;;;;;;4960752;29;20110;-80
2020/12/08 01:08:08;;;;;;;23.83;12.88;;;;;;;;;;4946853;29;20043;-77
2020/12/08 01:10:47;;;;;;;27.45;13.80;;;;;;;;;;4945845;29;20102;-80
2020/12/08 01:13:38;;;;;;;24.58;12.88;;;;;;;;;;4941945;29;20217;-80
2020/12/08 01:16:31;;;;;;;21.77;12.45;;;;;;;;;;4960605;28;20047;-79
2020/12/08 01:19:13;;;;;;;27.55;14.82;;;;;;;;;;4958855;29;20047;-80
2020/12/08 01:22:08;;;;;;;25.10;13.55;;;;;;;;;;4947405;29;20055;-80
2020/12/08 01:24:50;;;;;;;25.67;13.63;;;;;;;;;;4958442;29;20055;-78
2020/12/08 01:27:39;;;;;;;26.23;14.38;;;;;;;;;;4959934;28;20130;-78
2020/12/08 01:30:16;;;;;;;23.38;13.52;;;;;;;;;;4958848;28;20055;-80
2020/12/08 01:33:12;;;;;;;29.05;15.32;;;;;;;;;;4937739;29;20074;-80
2020/12/08 01:36:00;;;;;;;30.13;15.45;;;;;;;;;;4960473;29;20070;-79
2020/12/08 01:38:41;;;;;;;27.63;14.90;;;;;;;;;;4965612;28;20487;-79
2020/12/08 01:41:31;;;;;;;26.33;13.73;;;;;;;;;;4966916;29;20384;-78
2020/12/08 01:44:15;;;;;;;27.25;13.75;;;;;;;;;;4949453;29;20086;-78
2020/12/08 01:46:57;;;;;;;24.92;13.20;;;;;;;;;;4975457;28;20051;-78
2020/12/08 01:49:34;;;;;;;27.38;14.55;;;;;;;;;;4960140;28;20126;-78
2020/12/08 01:52:22;;;;;;;25.90;14.55;;;;;;;;;;4962567;28;20063;-79
2020/12/08 01:55:07;;;;;;;28.23;15.25;;;;;;;;;;4965853;29;20223;-77
2020/12/08 01:58:10;;;;;;;27.58;14.85;;;;;;;;;;4961327;29;20047;-78
2020/12/08 02:00:43;;;;;;;28.17;14.93;;;;;;;;;;4970074;23;20086;-79
2020/12/08 02:03:15;;;;;;;27.58;14.73;;;;;;;;;;4970584;28;20113;-77
2020/12/08 02:05:48;;;;;;;28.05;15.13;;;;;;;;;;4956385;28;20503;-79
2020/12/08 02:08:32;;;;;;;28.00;15.05;;;;;;;;;;4958112;28;20038;-79
2020/12/08 02:11:19;;;;;;;29.95;14.45;;;;;;;;;;4925082;29;20047;-78
2020/12/08 02:13:53;;;;;;;28.52;14.93;;;;;;;;;;4934916;29;20040;-78
2020/12/08 02:16:38;;;;;;;;;;;;;;;;;;;;;
2020/12/08 02:19:10;;;;;;;28.00;15.25;;;;;;;;;;4936661;29;20052;-79
2020/12/08 02:21:44;;;;;;;33.08;16.83;;;;;;;;;;4936803;29;20046;-79
2020/12/08 02:24:17;;;;;;;29.50;16.08;;;;;;;;;;4936309;29;20051;-78
2020/12/08 02:26:59;;;;;;;30.98;16.65;;;;;;;;;;4927137;29;20048;-79
2020/12/08 02:29:38;;;;;;;33.35;16.95;;;;;;;;;;4921646;29;20051;-78
2020/12/08 02:32:19;;;;;;;32.03;16.58;;;;;;;;;;4939288;29;20047;-79
2020/12/08 02:35:05;;;;;;;32.63;15.98;;;;;;;;;;4933650;29;20044;-78
2020/12/08 02:37:37;;;;;;;30.95;15.75;;;;;;;;;;4936820;29;20043;-79
2020/12/08 02:40:18;;;;;;;27.00;14.80;;;;;;;;;;4936512;29;20082;-78
2020/12/08 02:43:22;;;;;;;29.42;16.52;;;;;;;;;;4935941;29;20051;-77
2020/12/08 02:46:34;;;;;;;28.70;14.88;;;;;;;;;;4933819;29;20044;-79
2020/12/08 02:49:33;;;;;;;29.33;15.02;;;;;;;;;;4936182;29;20059;-78
2020/12/08 02:52:11;;;;;;;28.35;14.70;;;;;;;;;;4944873;29;20047;-79
2020/12/08 02:57:32;;;;;;;30.33;14.38;;;;;;;;;;4935731;29;20055;-79
2020/12/08 03:03:32;;;;;;;27.67;14.52;;;;;;;;;;4934802;29;20075;-78
2020/12/08 03:06:44;;;;;;;26.02;14.10;;;;;;;;;;4896570;29;20060;-78
2020/12/08 03:09:23;;;;;;;23.90;13.60;;;;;;;;;;4896539;29;20044;-79
2020/12/08 03:12:22;;;;;;;28.33;15.20;;;;;;;;;;4895877;29;20045;-79
2020/12/08 03:14:52;;;;;;;27.33;14.80;;;;;;;;;;4879635;29;20053;-78
2020/12/08 03:17:47;;;;;;;28.70;14.32;;;;;;;;;;4895398;29;20135;-78
2020/12/08 03:20:43;;;;;;;29.27;14.98;;;;;;;;;;4882971;29;20052;-78
2020/12/08 03:24:06;;;;;;;30.55;15.38;;;;;;;;;;4910178;28;20122;-80
2020/12/08 03:26:58;;;;;;;28.50;14.50;;;;;;;;;;4979059;28;20050;-79
2020/12/08 03:29:39;;;;;;;31.42;14.63;;;;;;;;;;4962131;28;20130;-78
2020/12/08 03:32:24;;;;;;;27.13;14.88;;;;;;;;;;4973821;28;20109;-78
2020/12/08 03:38:10;;;;;;;31.58;16.92;;;;;;;;;;4982292;28;20051;-78
2020/12/08 03:40:56;;;;;;;28.70;15.48;;;;;;;;;;4984050;28;20051;-78
2020/12/08 03:43:43;;;;;;;27.23;15.18;;;;;;;;;;4967416;28;20511;-78
2020/12/08 03:46:32;;;;;;;27.00;14.80;;;;;;;;;;4964104;28;20042;-80
2020/12/08 03:49:37;;;;;;;29.55;15.85;;;;;;;;;;4979744;28;20070;-79
2020/12/08 03:52:23;;;;;;;28.17;15.23;;;;;;;;;;4974330;28;20047;-78
2020/12/08 03:54:49;;;;;;;29.45;14.95;;;;;;;;;;4969419;28;20046;-79
2020/12/08 03:57:56;;;;;;;30.13;15.88;;;;;;;;;;4950047;28;20066;-79
2020/12/08 04:00:40;;;;;;;30.85;16.20;;;;;;;;;;4961057;28;20043;-80
2020/12/08 04:03:37;;;;;;;29.05;15.23;;;;;;;;;;4970945;28;20054;-80
2020/12/08 04:06:12;;;;;;;30.98;16.02;;;;;;;;;;4961810;28;20047;-80
2020/12/08 04:09:17;;;;;;;31.95;16.10;;;;;;;;;;4964764;28;20041;-76
2020/12/08 04:12:03;;;;;;;30.60;16.20;;;;;;;;;;4942971;28;20078;-80
2020/12/08 04:14:44;;;;;;;34.47;16.38;;;;;;;;;;4978127;28;20053;-80
2020/12/08 04:17:20;;;;;;;24.53;12.20;;;;;;;;;;4997941;28;20039;-81
2020/12/08 04:20:02;;;;;;;32.33;16.42;;;;;;;;;;5000332;28;20466;-80
2020/12/08 04:22:46;;;;;;;34.05;16.63;;;;;;;;;;4970505;28;20072;-80
2020/12/08 04:25:32;;;;;;;34.53;17.17;;;;;;;;;;4985799;28;20048;-80
2020/12/08 04:28:12;;;;;;;30.50;16.33;;;;;;;;;;4989059;28;20038;-80
2020/12/08 04:30:59;;;;;;;33.67;16.40;;;;;;;;;;4989856;28;20120;-80
2020/12/08 04:33:28;;;;;;;32.95;16.30;;;;;;;;;;4988297;28;20044;-80
2020/12/08 04:36:14;;;;;;;34.75;16.30;;;;;;;;;;4979328;28;20426;-80
2020/12/08 04:38:49;;;;;;;22.90;11.32;;;;;;;;;;4985652;28;20062;-80
2020/12/08 04:41:24;;;;;;;30.98;14.95;;;;;;;;;;4979924;28;20105;-79
2020/12/08 04:43:54;;;;;;;29.25;15.00;;;;;;;;;;4993439;28;20044;-79
2020/12/08 04:46:26;;;;;;;28.30;14.70;;;;;;;;;;4995280;28;20050;-78
2020/12/08 04:49:00;;;;;;;35.35;16.98;;;;;;;;;;4987878;28;20141;-78
2020/12/08 04:51:42;;;;;;;35.58;17.17;;;;;;;;;;4986642;28;20046;-79
2020/12/08 04:54:25;;;;;;;35.38;16.95;;;;;;;;;;4999222;28;20041;-78
2020/12/08 04:57:14;;;;;;;38.28;17.35;;;;;;;;;;5020169;28;20038;-78
2020/12/08 04:59:59;;;;;;;37.28;17.30;;;;;;;;;;4995860;28;20441;-79
2020/12/08 05:02:54;;;;;;;35.55;18.17;;;;;;;;;;4987794;28;20054;-80
2020/12/08 05:05:42;;;;;;;42.25;19.25;;;;;;;;;;4981494;28;20505;-79
2020/12/08 05:08:30;;;;;;;39.65;18.10;;;;;;;;;;4985250;28;20337;-80
2020/12/08 05:11:15;;;;;;;40.10;19.02;;;;;;;;;;4985487;28;20065;-80
2020/12/08 05:14:30;;;;;;;41.25;19.02;;;;;;;;;;4982624;28;20046;-82
2020/12/08 05:17:09;;;;;;;44.05;19.13;;;;;;;;;;5000795;28;20053;-83
2020/12/08 05:19:39;;;;;;;44.13;20.23;;;;;;;;;;4980546;28;20049;-78
2020/12/08 05:22:10;;;;;;;42.85;19.13;;;;;;;;;;4999721;28;20402;-80
2020/12/08 05:24:40;;;;;;;45.83;19.48;;;;;;;;;;4998391;28;20057;-79
2020/12/08 05:27:07;;;;;;;41.42;19.55;;;;;;;;;;4975563;28;20113;-78
2020/12/08 05:29:38;;;;;;;39.35;18.02;;;;;;;;;;4977126;28;20045;-79
2020/12/08 05:32:40;;;;;;;39.20;18.30;;;;;;;;;;4979488;28;20078;-79
2020/12/08 05:35:11;;;;;;;41.53;18.65;;;;;;;;;;4946476;28;20077;-79
2020/12/08 05:37:43;;;;;;;43.25;19.20;;;;;;;;;;4978812;28;20049;-80
2020/12/08 05:40:17;;;;;;;52.10;21.75;;;;;;;;;;4996604;28;20073;-80
2020/12/08 05:42:54;;;;;;;50.67;21.63;;;;;;;;;;4996078;28;20520;-80
2020/12/08 05:45:31;;;;;;;47.08;21.40;;;;;;;;;;4967453;28;20047;-78
2020/12/08 05:48:00;;;;;;;44.00;20.30;;;;;;;;;;4971076;28;20042;-79
2020/12/08 05:50:44;;;;;;;40.15;18.90;;;;;;;;;;4983372;28;20561;-80
2020/12/08 05:53:24;;;;;;;42.08;18.30;;;;;;;;;;4982151;28;20042;-79
2020/12/08 05:56:02;;;;;;;34.60;16.55;;;;;;;;;;5002260;28;20047;-79
2020/12/08 05:58:32;;;;;;;30.58;15.18;;;;;;;;;;5002001;28;20118;-80
2020/12/08 06:01:07;;;;;;;34.08;16.83;;;;;;;;;;4962220;28;20042;-79
2020/12/08 06:03:39;;;;;;;37.53;16.73;;;;;;;;;;4995679;28;20088;-80
2020/12/08 06:06:09;;;;;;;33.97;16.65;;;;;;;;;;4961053;28;20050;-80
2020/12/08 06:08:42;;;;;;;37.15;17.25;;;;;;;;;;4980069;28;20066;-79
2020/12/08 06:11:30;;;;;;;34.40;15.77;;;;;;;;;;4978404;28;20065;-78
2020/12/08 06:14:02;;;;;;;;;;;;;;;;;;4994120;28;20506;-79
2020/12/08 06:16:32;;;;;;;36.10;16.38;;;;;;;;;;4993203;28;20393;-79
2020/12/08 06:18:58;;;;;;;36.97;16.20;;;;;;;;;;4976255;28;20630;-79
2020/12/08 06:21:26;;;;;;;34.00;15.82;;;;;;;;;;4994024;28;20073;-79
2020/12/08 06:23:59;;;;;;;33.75;15.73;;;;;;;;;;4976291;28;20058;-80
2020/12/08 06:26:28;;;;;;;35.90;16.07;;;;;;;;;;4992614;28;20050;-79
2020/12/08 06:29:10;;;;;;;31.70;15.15;;;;;;;;;;4994440;28;20062;-79
2020/12/08 06:31:44;;;;;;;27.35;14.43;;;;;;;;;;4975422;28;20124;-80
2020/12/08 06:34:25;;;;;;;29.38;14.73;;;;;;;;;;4959908;28;20294;-78
2020/12/08 06:36:52;;;;;;;35.97;15.98;;;;;;;;;;4993309;28;20066;-79
2020/12/08 06:39:20;;;;;;;33.67;14.60;;;;;;;;;;4977233;28;20104;-79
2020/12/08 06:41:51;;;;;;;34.60;16.23;;;;;;;;;;4992776;28;20058;-79
2020/12/08 06:44:21;;;;;;;33.33;15.73;;;;;;;;;;4977485;28;20057;-79
2020/12/08 06:46:58;;;;;;;32.53;15.43;;;;;;;;;;4963803;28;20074;-79
2020/12/08 06:49:36;;;;;;;36.88;15.90;;;;;;;;;;4979821;28;20050;-79
2020/12/08 06:52:10;;;;;;;40.20;16.73;;;;;;;;;;4982261;28;20073;-79
2020/12/08 06:54:42;;;;;;;34.35;15.80;;;;;;;;;;5001648;28;20034;-80
2020/12/08 06:57:08;;;;;;;38.83;16.58;;;;;;;;;;4986530;28;20110;-79
2020/12/08 06:59:37;;;;;;;32.10;15.68;;;;;;;;;;4979554;28;20046;-80
2020/12/08 07:02:04;;;;;;;37.67;16.63;;;;;;;;;;4975402;28;20580;-80
2020/12/08 07:04:31;;;;;;;34.58;16.13;;;;;;;;;;4991589;28;20506;-80
2020/12/08 07:07:02;;;;;;;36.13;17.13;;;;;;;;;;4976060;28;20062;-80
2020/12/08 07:09:32;;;;;;;39.40;17.00;;;;;;;;;;4993406;28;20046;-78
2020/12/08 07:12:01;;;;;;;35.55;17.20;;;;;;;;;;4990730;28;20134;-80
2020/12/08 07:14:31;;;;;;;39.85;17.92;;;;;;;;;;4994733;28;20065;-77
2020/12/08 07:16:58;;;;;;;40.05;18.20;;;;;;;;;;4995719;28;20048;-79
2020/12/08 07:19:28;;;;;;;45.50;21.42;;;;;;;;;;4993201;28;20129;-78
2020/12/08 07:21:58;;;;;;;42.30;19.65;;;;;;;;;;4991951;28;20046;-78
2020/12/08 07:24:27;;;;;;;44.28;19.85;;;;;;;;;;4992134;28;20395;-78
2020/12/08 07:26:57;;;;;;;49.00;21.23;;;;;;;;;;4975108;28;20379;-79
2020/12/08 07:29:24;;;;;;;48.30;20.73;;;;;;;;;;4975376;28;20047;-79
2020/12/08 07:31:50;;;;;;;46.65;20.27;;;;;;;;;;4974408;28;20552;-79
2020/12/08 07:34:16;;;;;;;41.25;19.00;;;;;;;;;;4972724;28;20045;-78
2020/12/08 07:36:43;;;;;;;38.55;17.95;;;;;;;;;;4991492;28;20261;-79
2020/12/08 07:39:17;;;;;;;39.53;17.85;;;;;;;;;;4942521;28;20046;-77
2020/12/08 07:41:43;;;;;;;42.45;18.65;;;;;;;;;;4957334;28;20149;-79
2020/12/08 07:44:11;;;;;;;43.38;18.75;;;;;;;;;;4990664;28;20058;-80
2020/12/08 07:46:46;;;;;;;40.28;19.17;;;;;;;;;;4991576;28;20525;-78
2020/12/08 07:49:14;;;;;;;46.05;20.67;;;;;;;;;;4973043;28;20458;-78
2020/12/08 07:51:40;;;;;;;49.90;22.35;;;;;;;;;;4990919;28;20346;-79
2020/12/08 07:54:07;;;;;;;49.38;21.02;;;;;;;;;;4973772;28;20050;-78
2020/12/08 07:56:35;;;;;;;46.65;21.88;;;;;;;;;;4957515;28;20057;-79
2020/12/08 07:59:02;;;;;;;45.30;21.17;;;;;;;;;;4973794;28;20474;-79
2020/12/08 08:01:28;;;;;;;44.72;21.65;;;;;;;;;;5000682;23;20096;-79
2020/12/08 08:03:58;;;;;;;47.45;21.50;;;;;;;;;;4992392;28;20657;-79
2020/12/08 08:06:33;;;;;;;46.03;20.45;;;;;;;;;;4995132;28;20145;-79
2020/12/08 08:09:08;;;;;;;43.67;19.40;;;;;;;;;;4994953;28;20078;-77
2020/12/08 08:11:47;;;;;;;44.80;21.20;;;;;;;;;;4995092;28;20134;-80
2020/12/08 08:14:24;;;;;;;46.90;22.55;;;;;;;;;;4997414;28;20109;-80
2020/12/08 08:17:17;;;;;;;41.72;19.75;;;;;;;;;;4983465;28;20054;-80
2020/12/08 08:19:59;;;;;;;37.55;18.63;;;;;;;;;;4994949;28;20042;-79
2020/12/08 08:22:31;;;;;;;32.60;17.13;;;;;;;;;;4980071;28;20066;-80
2020/12/08 08:25:01;;;;;;;32.40;16.48;;;;;;;;;;4980905;28;20069;-80
2020/12/08 08:27:32;;;;;;;29.98;15.45;;;;;;;;;;4995006;28;20054;-80
2020/12/08 08:30:06;;;;;;;27.60;15.43;;;;;;;;;;4978329;28;20052;-80
2020/12/08 08:32:44;;;;;;;30.55;16.30;;;;;;;;;;4995322;28;20311;-80
2020/12/08 08:35:36;;;;;;;30.48;15.00;;;;;;;;;;4980839;28;20482;-79
2020/12/08 08:38:15;;;;;;;31.50;16.55;;;;;;;;;;4995338;28;20038;-80
2020/12/08 08:40:50;;;;;;;38.78;16.42;;;;;;;;;;4995333;28;20069;-80
2020/12/08 08:43:27;;;;;;;35.60;18.33;;;;;;;;;;4964807;28;20132;-81
2020/12/08 08:46:00;;;;;;;27.50;15.75;;;;;;;;;;4994929;28;20054;-80
2020/12/08 08:48:30;;;;;;;28.00;16.27;;;;;;;;;;4978508;28;20403;-80
2020/12/08 08:51:10;;;;;;;28.67;15.85;;;;;;;;;;4974399;28;20121;-81
2020/12/08 08:53:41;;;;;;;24.80;14.75;;;;;;;;;;4992586;28;20052;-80
2020/12/08 08:56:19;;;;;;;24.17;13.97;;;;;;;;;;5001775;28;20051;-79
2020/12/08 08:58:51;;;;;;;26.88;14.68;;;;;;;;;;5000910;28;20114;-79
2020/12/08 09:01:30;;;;;;;25.85;13.50;;;;;;;;;;4964116;28;20112;-80
2020/12/08 09:04:10;;;;;;;24.45;14.77;;;;;;;;;;4995032;28;20065;-80
2020/12/08 09:06:40;;;;;;;23.02;14.60;;;;;;;;;;4996803;28;20057;-80
2020/12/08 09:09:11;;;;;;;25.40;14.70;;;;;;;;;;4997340;28;20044;-79
2020/12/08 09:11:46;;;;;;;23.02;14.18;;;;;;;;;;4995162;28;20502;-79
2020/12/08 09:14:21;;;;;;;23.65;14.65;;;;;;;;;;4981353;28;20104;-79
2020/12/08 09:16:56;;;;;;;18.95;12.63;;;;;;;;;;4981333;28;20043;-80
2020/12/08 09:19:26;;;;;;;25.25;13.85;;;;;;;;;;4995604;28;20046;-80
2020/12/08 09:21:55;;;;;;;21.65;13.65;;;;;;;;;;4996437;28;20046;-79
2020/12/08 09:24:36;;;;;;;20.30;13.25;;;;;;;;;;4967579;28;20077;-81
2020/12/08 09:27:48;;;;;;;20.95;13.73;;;;;;;;;;4996375;28;20054;-81
2020/12/08 09:30:48;;;;;;;23.63;12.60;;;;;;;;;;4998383;28;20052;-81
2020/12/08 09:33:32;;;;;;;22.92;13.02;;;;;;;;;;4980425;28;20062;-80
2020/12/08 09:36:36;;;;;;;20.92;11.45;;;;;;;;;;4999418;28;20026;-81
2020/12/08 09:39:18;;;;;;;19.88;11.95;;;;;;;;;;4998665;28;20499;-80
2020/12/08 09:41:54;;;;;;;24.67;11.68;;;;;;;;;;4981683;28;20049;-80
2020/12/08 09:44:45;;;;;;;17.92;11.55;;;;;;;;;;4997306;28;20042;-79
2020/12/08 09:47:24;;;;;;;17.80;11.70;;;;;;;;;;4997015;28;20068;-80
2020/12/08 09:49:56;;;;;;;18.55;11.43;;;;;;;;;;4980860;28;20050;-79
2020/12/08 09:52:27;;;;;;;20.55;11.32;;;;;;;;;;4997695;28;20472;-79
2020/12/08 09:55:01;;;;;;;17.52;11.38;;;;;;;;;;4997462;28;20129;-83
2020/12/08 09:57:49;;;;;;;16.33;10.30;;;;;;;;;;4996322;28;20043;-79
2020/12/08 10:00:35;;;;;;;15.82;10.90;;;;;;;;;;4994233;28;20121;-78
2020/12/08 10:03:14;;;;;;;16.25;9.50;;;;;;;;;;5007467;28;20051;-76
2020/12/08 10:05:59;;;;;;;16.75;9.70;;;;;;;;;;5005632;28;20046;-81
2020/12/08 10:08:46;;;;;;;16.02;9.85;;;;;;;;;;5020184;28;20060;-81
2020/12/08 10:11:42;;;;;;;16.00;10.20;;;;;;;;;;5004870;28;20057;-80
2020/12/08 10:14:25;;;;;;;14.93;9.73;;;;;;;;;;5006372;28;20046;-80
2020/12/08 10:17:08;;;;;;;16.77;9.98;;;;;;;;;;5006885;28;20410;-80
2020/12/08 10:19:46;;;;;;;17.38;10.10;;;;;;;;;;4996197;28;20085;-81
2020/12/08 10:22:27;;;;;;;15.57;10.30;;;;;;;;;;4995937;28;20065;-78
2020/12/08 10:25:15;;;;;;;16.27;10.10;;;;;;;;;;4967576;28;20053;-79
2020/12/08 10:28:19;;;;;;;14.93;10.10;;;;;;;;;;4997413;28;20050;-79
2020/12/08 10:31:02;;;;;;;21.55;11.13;;;;;;;;;;4997365;28;20073;-79
2020/12/08 10:33:49;;;;;;;18.30;10.55;;;;;;;;;;4993498;28;20054;-78
2020/12/08 10:36:22;;;;;;;17.88;10.98;;;;;;;;;;4995208;28;20612;-81
2020/12/08 10:39:03;;;;;;;20.08;11.25;;;;;;;;;;4996043;28;20046;-80
2020/12/08 10:41:41;;;;;;;22.33;12.00;;;;;;;;;;4981399;28;20316;-80
2020/12/08 10:44:17;;;;;;;17.67;11.02;;;;;;;;;;4962470;28;20559;-79
2020/12/08 10:46:56;;;;;;;24.13;11.02;;;;;;;;;;4980780;28;20046;-80
2020/12/08 10:49:34;;;;;;;19.67;11.15;;;;;;;;;;4995852;28;20046;-79
2020/12/08 10:52:06;;;;;;;20.17;11.23;;;;;;;;;;4995113;28;20170;-79
2020/12/08 10:54:46;;;;;;;23.02;11.82;;;;;;;;;;4964780;28;20560;-79
2020/12/08 10:57:24;;;;;;;23.50;11.40;;;;;;;;;;4980639;28;20138;-79
2020/12/08 11:00:27;;;;;;;18.88;11.18;;;;;;;;;;4996271;28;20072;-80
2020/12/08 11:03:09;;;;;;;20.77;11.80;;;;;;;;;;4996573;28;20057;-80
2020/12/08 11:06:04;;;;;;;19.55;11.90;;;;;;;;;;4993435;28;20150;-80
2020/12/08 11:08:42;;;;;;;20.75;11.65;;;;;;;;;;4995951;28;20042;-79
2020/12/08 11:11:25;;;;;;;19.17;10.13;;;;;;;;;;4964571;28;20053;-79
2020/12/08 11:14:07;;;;;;;20.63;11.65;;;;;;;;;;4995173;28;20057;-81
2020/12/08 11:16:38;;;;;;;23.55;12.20;;;;;;;;;;4995663;28;20042;-81
2020/12/08 11:19:27;;;;;;;20.20;11.63;;;;;;;;;;4981205;28;20478;-80
2020/12/08 11:22:09;;;;;;;22.40;11.75;;;;;;;;;;4980189;28;20050;-80
2020/12/08 11:24:56;;;;;;;21.42;12.13;;;;;;;;;;4995362;28;20050;-80
2020/12/08 11:27:40;;;;;;;22.17;12.05;;;;;;;;;;4995040;28;20046;-80
2020/12/08 11:30:18;;;;;;;21.10;11.55;;;;;;;;;;4979510;28;20046;-80
2020/12/08 11:33:07;;;;;;;18.17;10.70;;;;;;;;;;4995247;28;20042;-80
2020/12/08 11:35:49;;;;;;;20.15;10.90;;;;;;;;;;4994022;28;20043;-81
2020/12/08 11:38:33;;;;;;;16.40;9.85;;;;;;;;;;4995180;28;20564;-79
2020/12/08 11:41:31;;;;;;;16.60;9.52;;;;;;;;;;4996593;28;20042;-80
2020/12/08 11:44:12;;;;;;;17.50;10.23;;;;;;;;;;5000112;28;20066;-80
2020/12/08 11:46:47;;;;;;;17.27;9.98;;;;;;;;;;4999897;28;20049;-81
2020/12/08 11:49:35;;;;;;;16.05;9.95;;;;;;;;;;5000531;28;20061;-80
2020/12/08 11:52:36;;;;;;;15.00;9.57;;;;;;;;;;4988524;28;20125;-80
2020/12/08 11:55:17;;;;;;;19.65;9.75;;;;;;;;;;5006930;28;20026;-81
2020/12/08 11:58:00;;;;;;;15.27;10.43;;;;;;;;;;4991471;28;20050;-79
2020/12/08 12:00:39;;;;;;;15.52;9.80;;;;;;;;;;4991810;28;20042;-80
2020/12/08 12:03:17;;;;;;;15.88;9.80;;;;;;;;;;4981043;28;20452;-79
2020/12/08 12:06:00;;;;;;;19.30;10.40;;;;;;;;;;4994760;28;20309;-80
2020/12/08 12:08:36;;;;;;;16.25;9.98;;;;;;;;;;4978906;28;20569;-80
2020/12/08 12:11:28;;;;;;;16.10;10.20;;;;;;;;;;4995395;28;20043;-79
2020/12/08 12:14:17;;;;;;;15.10;10.68;;;;;;;;;;4976169;28;20403;-80
2020/12/08 12:17:06;;;;;;;14.93;10.25;;;;;;;;;;4994971;28;20116;-80
2020/12/08 12:20:04;;;;;;;17.60;10.45;;;;;;;;;;4993627;28;20042;-80
2020/12/08 12:22:43;;;;;;;18.90;10.80;;;;;;;;;;4965545;28;20054;-80
2020/12/08 12:25:31;;;;;;;17.67;10.98;;;;;;;;;;4981441;28;20089;-79
2020/12/08 12:28:09;;;;;;;18.35;11.73;;;;;;;;;;4994438;28;20129;-79
2020/12/08 12:30:49;;;;;;;20.98;12.10;;;;;;;;;;5000210;28;20062;-79
2020/12/08 12:33:32;;;;;;;21.88;12.45;;;;;;;;;;4996126;28;20054;-78
2020/12/08 12:36:14;;;;;;;21.05;12.68;;;;;;;;;;4965856;28;20413;-78
2020/12/08 12:38:50;;;;;;;28.00;12.93;;;;;;;;;;4996650;28;20557;-78
2020/12/08 12:41:39;;;;;;;21.77;12.50;;;;;;;;;;4995464;28;20565;-77
2020/12/08 12:44:11;;;;;;;22.10;13.40;;;;;;;;;;4995413;28;20046;-79
2020/12/08 12:46:43;;;;;;;21.20;12.32;;;;;;;;;;4996649;28;20038;-80
2020/12/08 12:49:16;;;;;;;22.63;12.90;;;;;;;;;;5006719;28;20069;-80
2020/12/08 12:51:55;;;;;;;25.00;13.70;;;;;;;;;;5002810;28;20038;-78
2020/12/08 12:54:49;;;;;;;;;;;;;;;;;;;;;
2020/12/08 12:57:26;;;;;;;23.00;12.70;;;;;;;;;;4998576;28;20550;-80
2020/12/08 13:00:15;;;;;;;21.88;12.75;;;;;;;;;;4983259;28;20050;-79
2020/12/08 13:02:50;;;;;;;23.67;12.70;;;;;;;;;;4998621;28;20051;-79
2020/12/08 13:05:52;;;;;;;22.75;12.68;;;;;;;;;;4973131;28;20057;-80
2020/12/08 13:08:54;;;;;;;21.75;12.60;;;;;;;;;;4991788;28;20058;-79
2020/12/08 13:11:46;;;;;;;21.70;12.52;;;;;;;;;;4998345;28;20053;-80
2020/12/08 13:14:28;;;;;;;22.20;13.68;;;;;;;;;;4985143;28;20067;-80
2020/12/08 13:17:09;;;;;;;25.65;13.63;;;;;;;;;;4982543;28;20046;-79
2020/12/08 13:19:57;;;;;;;24.50;12.23;;;;;;;;;;4997068;28;20046;-79
2020/12/08 13:22:57;;;;;;;24.67;12.55;;;;;;;;;;4997415;28;20142;-80
2020/12/08 13:25:46;;;;;;;22.23;12.45;;;;;;;;;;4998721;28;20050;-81
2020/12/08 13:28:26;;;;;;;21.52;12.57;;;;;;;;;;4983689;28;20148;-80
2020/12/08 13:31:09;;;;;;;21.17;12.55;;;;;;;;;;4999208;28;20049;-81
2020/12/08 13:33:55;;;;;;;27.65;12.77;;;;;;;;;;4997087;28;20049;-81
2020/12/08 13:36:40;;;;;;;21.25;11.82;;;;;;;;;;4969585;28;20501;-80
2020/12/08 13:39:27;;;;;;;19.65;12.07;;;;;;;;;;4971116;28;20054;-79
2020/12/08 13:42:11;;;;;;;23.88;12.63;;;;;;;;;;4968614;28;20461;-81
2020/12/08 13:44:45;;;;;;;22.25;12.90;;;;;;;;;;4981362;28;20042;-80
2020/12/08 13:47:33;;;;;;;25.77;13.18;;;;;;;;;;4995947;28;20520;-79
2020/12/08 13:50:28;;;;;;;22.60;12.80;;;;;;;;;;4997374;28;20124;-79
2020/12/08 13:53:10;;;;;;;24.13;13.00;;;;;;;;;;4982538;28;20039;-80
2020/12/08 13:55:43;;;;;;;26.95;13.25;;;;;;;;;;4997584;28;20070;-81
2020/12/08 13:58:21;;;;;;;23.80;14.25;;;;;;;;;;4996846;28;20050;-81
2020/12/08 14:00:59;;;;;;;22.48;13.10;;;;;;;;;;5008004;23;20105;-79
2020/12/08 14:03:28;;;;;;;22.73;13.35;;;;;;;;;;4988524;28;20050;-78
2020/12/08 14:05:57;;;;;;;25.35;14.60;;;;;;;;;;4976598;28;20383;-79
2020/12/08 14:08:27;;;;;;;26.65;14.25;;;;;;;;;;4996242;28;20560;-78
2020/12/08 14:10:56;;;;;;;29.77;15.40;;;;;;;;;;4992643;28;20047;-79
2020/12/08 14:13:26;;;;;;;28.63;15.38;;;;;;;;;;4990759;28;20065;-78
2020/12/08 14:15:55;;;;;;;28.25;15.32;;;;;;;;;;4992974;28;20045;-78
2020/12/08 14:18:24;;;;;;;32.42;15.63;;;;;;;;;;5007047;28;20039;-78
2020/12/08 14:20:53;;;;;;;24.40;13.75;;;;;;;;;;4990460;28;20043;-79
2020/12/08 14:23:26;;;;;;;24.75;14.30;;;;;;;;;;4989519;28;20058;-77
2020/12/08 14:25:54;;;;;;;25.60;13.95;;;;;;;;;;4992066;28;20630;-78
2020/12/08 14:28:26;;;;;;;25.83;15.38;;;;;;;;;;5007351;28;20072;-79
2020/12/08 14:31:09;;;;;;;26.42;14.88;;;;;;;;;;4977835;28;20046;-78
2020/12/08 14:33:39;;;;;;;25.90;14.52;;;;;;;;;;4991397;28;20532;-79
2020/12/08 14:36:08;;;;;;;29.35;14.48;;;;;;;;;;4992156;28;20050;-78
2020/12/08 14:38:35;;;;;;;26.77;14.48;;;;;;;;;;4991684;28;20043;-78
2020/12/08 14:41:07;;;;;;;26.17;14.73;;;;;;;;;;5006923;28;20050;-78
2020/12/08 14:43:38;;;;;;;27.00;14.38;;;;;;;;;;5005070;28;20117;-79
2020/12/08 14:46:04;;;;;;;30.23;16.08;;;;;;;;;;5006246;28;20055;-79
2020/12/08 14:48:31;;;;;;;33.85;14.65;;;;;;;;;;4993192;28;20050;-80
2020/12/08 14:50:58;;;;;;;27.23;15.25;;;;;;;;;;4991697;28;20046;-80
2020/12/08 14:53:24;;;;;;;27.92;15.48;;;;;;;;;;5010851;28;20248;-80
2020/12/08 14:55:51;;;;;;;28.98;15.50;;;;;;;;;;4997368;28;20117;-78
2020/12/08 14:58:17;;;;;;;27.20;15.48;;;;;;;;;;4994222;28;20081;-79
2020/12/08 15:00:43;;;;;;;32.55;16.35;;;;;;;;;;4991032;28;20050;-78
2020/12/08 15:03:09;;;;;;;28.30;15.80;;;;;;;;;;4985405;28;20057;-79
2020/12/08 15:05:35;;;;;;;32.78;16.88;;;;;;;;;;4972861;28;20042;-79
2020/12/08 15:08:01;;;;;;;29.67;16.90;;;;;;;;;;4968369;28;20054;-78
2020/12/08 15:10:28;;;;;;;32.63;17.25;;;;;;;;;;4978554;28;20050;-79
2020/12/08 15:12:55;;;;;;;33.85;16.67;;;;;;;;;;4979299;28;20178;-79
2020/12/08 15:15:21;;;;;;;33.80;16.85;;;;;;;;;;4981440;28;20039;-80
2020/12/08 15:17:47;;;;;;;34.47;17.30;;;;;;;;;;4962415;28;20047;-80
2020/12/08 15:20:13;;;;;;;29.00;17.20;;;;;;;;;;4981348;28;20049;-80
2020/12/08 15:22:39;;;;;;;39.72;18.88;;;;;;;;;;4981367;28;20121;-79
2020/12/08 15:25:06;;;;;;;33.63;18.17;;;;;;;;;;4990028;28;20046;-79
2020/12/08 15:27:32;;;;;;;33.17;19.38;;;;;;;;;;4991488;28;20114;-78
2020/12/08 15:30:08;;;;;;;34.33;18.73;;;;;;;;;;4995532;28;20046;-78
2020/12/08 15:32:34;;;;;;;37.92;19.42;;;;;;;;;;4998513;28;20041;-80
2020/12/08 15:35:17;;;;;;;33.67;18.30;;;;;;;;;;5005846;28;20050;-79
2020/12/08 15:37:44;;;;;;;35.70;18.80;;;;;;;;;;4996263;28;20050;-80
2020/12/08 15:40:10;;;;;;;31.00;17.83;;;;;;;;;;4976002;28;20413;-78
2020/12/08 15:42:39;;;;;;;39.13;19.10;;;;;;;;;;4980559;28;20051;-79
2020/12/08 15:45:06;;;;;;;38.25;19.58;;;;;;;;;;4980422;28;20118;-78